sensor_id;sensor_type;location;lat;lon;timestamp;pressure;altitude;pressure_sealevel;temperature;humidity
10897;BME280;5501;51.176;6.470;2023-02-23T00:03:16;100710.19;;;10.67;100.00
10897;BME280;5501;51.176;6.470;2023-02-23T00:08:18;100702.50;;;10.57;100.00
10897;BME280;5501;51.176;6.470;2023-02-23T00:13:20;100710.38;;;10.59;100.00
10897;BME280;5501;51.176;6.470;2023-02-23T00:18:21;100704.16;;;10.61;100.00
10897;BME280;5501;51.176;6.470;2023-02-23T00:23:30;100696.91;;;10.66;100.00
10897;BME280;5501;51.176;6.470;2023-02-23T00:28:31;100696.69;;;10.73;100.00
10897;BME280;5501;51.176;6.470;2023-02-23T00:33:34;100696.69;;;10.73;100.00
10897;BME280;5501;51.176;6.470;2023-02-23T00:38:37;100694.13;;;10.70;100.00
10897;BME280;5501;51.176;6.470;2023-02-23T00:43:41;100694.47;;;10.58;100.00
10897;BME280;5501;51.176;6.470;2023-02-23T00:48:48;100679.56;;;10.52;100.00
10897;BME280;5501;51.176;6.470;2023-02-23T00:53:53;100684.97;;;10.49;100.00
10897;BME280;5501;51.176;6.470;2023-02-23T00:58:55;100682.78;;;10.63;100.00
10897;BME280;5501;51.176;6.470;2023-02-23T01:04:00;100691.97;;;10.83;100.00
10897;BME280;5501;51.176;6.470;2023-02-23T01:09:06;100697.84;;;10.65;100.00
10897;BME280;5501;51.176;6.470;2023-02-23T01:14:09;100687.47;;;10.56;100.00
10897;BME280;5501;51.176;6.470;2023-02-23T01:19:11;100689.06;;;10.61;100.00
10897;BME280;5501;51.176;6.470;2023-02-23T01:24:14;100696.91;;;10.66;100.00
10897;BME280;5501;51.176;6.470;2023-02-23T01:29:17;100694.25;;;10.66;100.00
10897;BME280;5501;51.176;6.470;2023-02-23T01:34:19;100695.25;;;10.62;100.00
10897;BME280;5501;51.176;6.470;2023-02-23T01:39:21;100693.59;;;10.57;100.00
10897;BME280;5501;51.176;6.470;2023-02-23T01:49:26;100693.78;;;10.52;100.00
10897;BME280;5501;51.176;6.470;2023-02-23T01:54:32;100688.19;;;10.61;100.00
10897;BME280;5501;51.176;6.470;2023-02-23T01:59:38;100682.97;;;10.57;100.00
10897;BME280;5501;51.176;6.470;2023-02-23T02:04:42;100684.97;;;10.49;100.00
10897;BME280;5501;51.176;6.470;2023-02-23T02:09:46;100681.50;;;10.48;100.00
10897;BME280;5501;51.176;6.470;2023-02-23T02:15:07;100683.03;;;10.54;100.00
10897;BME280;5501;51.176;6.470;2023-02-23T02:20:30;100688.69;;;10.42;100.00
10897;BME280;5501;51.176;6.470;2023-02-23T02:25:48;100688.69;;;10.42;100.00
10897;BME280;5501;51.176;6.470;2023-02-23T02:42:01;100682.53;;;10.42;100.00
10897;BME280;5501;51.176;6.470;2023-02-23T02:47:11;100684.50;;;10.35;100.00
10897;BME280;5501;51.176;6.470;2023-02-23T02:52:24;100685.09;;;10.45;100.00
10897;BME280;5501;51.176;6.470;2023-02-23T02:57:31;100685.09;;;10.45;100.00
10897;BME280;5501;51.176;6.470;2023-02-23T03:02:37;100681.84;;;10.35;100.00
10897;BME280;5501;51.176;6.470;2023-02-23T03:13:39;100682.16;;;10.23;100.00
10897;BME280;5501;51.176;6.470;2023-02-23T03:19:08;100685.34;;;10.36;100.00
10897;BME280;5501;51.176;6.470;2023-02-23T03:24:51;100687.97;;;10.37;100.00
10897;BME280;5501;51.176;6.470;2023-02-23T03:30:17;100685.97;;;10.13;100.00
10897;BME280;5501;51.176;6.470;2023-02-23T03:35:47;100692.94;;;10.17;100.00
10897;BME280;5501;51.176;6.470;2023-02-23T03:41:12;100696.13;;;10.31;100.00
10897;BME280;5501;51.176;6.470;2023-02-23T03:46:37;100696.34;;;10.22;100.00
10897;BME280;5501;51.176;6.470;2023-02-23T03:52:06;100694.69;;;10.18;100.00
10897;BME280;5501;51.176;6.470;2023-02-23T03:57:31;100699.47;;;10.06;100.00
10897;BME280;5501;51.176;6.470;2023-02-23T04:02:53;100694.69;;;10.18;100.00
10897;BME280;5501;51.176;6.470;2023-02-23T04:08:17;100694.69;;;10.18;100.00
10897;BME280;5501;51.176;6.470;2023-02-23T04:13:39;100709.88;;;10.13;100.00
10897;BME280;5501;51.176;6.470;2023-02-23T04:18:40;100709.88;;;10.13;100.00
10897;BME280;5501;51.176;6.470;2023-02-23T04:23:42;100701.25;;;10.02;100.00
10897;BME280;5501;51.176;6.470;2023-02-23T04:28:44;100711.72;;;10.11;100.00
10897;BME280;5501;51.176;6.470;2023-02-23T04:33:46;100711.72;;;10.11;100.00
10897;BME280;5501;51.176;6.470;2023-02-23T04:38:47;100708.34;;;10.05;100.00
10897;BME280;5501;51.176;6.470;2023-02-23T04:43:48;100704.78;;;10.06;100.00
10897;BME280;5501;51.176;6.470;2023-02-23T04:48:50;100704.78;;;10.06;100.00
10897;BME280;5501;51.176;6.470;2023-02-23T04:53:51;100704.78;;;10.06;100.00
10897;BME280;5501;51.176;6.470;2023-02-23T04:58:53;100713.56;;;10.08;100.00
10897;BME280;5501;51.176;6.470;2023-02-23T05:03:54;100710.94;;;10.06;100.00
10897;BME280;5501;51.176;6.470;2023-02-23T05:08:56;100721.44;;;10.12;100.00
10897;BME280;5501;51.176;6.470;2023-02-23T05:13:57;100718.97;;;10.05;100.00
10897;BME280;5501;51.176;6.470;2023-02-23T05:18:59;100720.78;;;10.01;100.00
10897;BME280;5501;51.176;6.470;2023-02-23T05:24:01;100725.16;;;10.05;100.00
10897;BME280;5501;51.176;6.470;2023-02-23T05:29:03;100729.53;;;10.06;100.00
10897;BME280;5501;51.176;6.470;2023-02-23T05:34:06;100729.53;;;10.06;100.00
10897;BME280;5501;51.176;6.470;2023-02-23T05:39:08;100729.53;;;10.06;100.00
10897;BME280;5501;51.176;6.470;2023-02-23T05:44:09;100729.53;;;10.06;100.00
10897;BME280;5501;51.176;6.470;2023-02-23T05:49:11;100729.53;;;10.06;100.00
10897;BME280;5501;51.176;6.470;2023-02-23T05:54:13;100736.16;;;9.90;100.00
10897;BME280;5501;51.176;6.470;2023-02-23T05:59:14;100736.16;;;9.90;100.00
10897;BME280;5501;51.176;6.470;2023-02-23T06:04:17;100736.16;;;9.90;100.00
10897;BME280;5501;51.176;6.470;2023-02-23T06:09:19;100736.16;;;9.90;100.00
10897;BME280;5501;51.176;6.470;2023-02-23T06:14:20;100736.16;;;9.90;100.00
10897;BME280;5501;51.176;6.470;2023-02-23T06:19:22;100736.16;;;9.90;100.00
10897;BME280;5501;51.176;6.470;2023-02-23T06:24:23;76918.75;;;-140.81;100.00
10897;BME280;5501;51.176;6.470;2023-02-23T06:29:25;100736.16;;;9.90;100.00
10897;BME280;5501;51.176;6.470;2023-02-23T06:34:27;100736.16;;;9.90;100.00
10897;BME280;5501;51.176;6.470;2023-02-23T06:39:29;100736.16;;;9.90;100.00
10897;BME280;5501;51.176;6.470;2023-02-23T06:44:30;100736.16;;;9.90;100.00
10897;BME280;5501;51.176;6.470;2023-02-23T06:49:35;100777.53;;;9.99;100.00
10897;BME280;5501;51.176;6.470;2023-02-23T06:54:38;100777.53;;;9.99;100.00
10897;BME280;5501;51.176;6.470;2023-02-23T06:59:40;100777.53;;;9.99;100.00
10897;BME280;5501;51.176;6.470;2023-02-23T07:04:42;100780.66;;;9.79;100.00
10897;BME280;5501;51.176;6.470;2023-02-23T07:09:44;100799.78;;;9.93;100.00
10897;BME280;5501;51.176;6.470;2023-02-23T07:14:45;100799.78;;;9.93;100.00
10897;BME280;5501;51.176;6.470;2023-02-23T07:19:47;100799.78;;;9.93;100.00
10897;BME280;5501;51.176;6.470;2023-02-23T07:24:48;100799.78;;;9.93;100.00
10897;BME280;5501;51.176;6.470;2023-02-23T07:29:50;100799.78;;;9.93;100.00
10897;BME280;5501;51.176;6.470;2023-02-23T07:34:51;100822.53;;;9.68;100.00
10897;BME280;5501;51.176;6.470;2023-02-23T07:39:54;100822.53;;;9.68;100.00
10897;BME280;5501;51.176;6.470;2023-02-23T07:44:55;100822.53;;;9.68;100.00
10897;BME280;5501;51.176;6.470;2023-02-23T07:49:58;77014.63;;;-140.81;100.00
10897;BME280;5501;51.176;6.470;2023-02-23T07:55:00;100822.53;;;9.68;100.00
10897;BME280;5501;51.176;6.470;2023-02-23T08:00:03;100845.97;;;9.88;100.00
10897;BME280;5501;51.176;6.470;2023-02-23T08:05:12;100845.97;;;9.88;100.00
10897;BME280;5501;51.176;6.470;2023-02-23T08:15:15;100845.97;;;9.88;100.00
10897;BME280;5501;51.176;6.470;2023-02-23T08:20:17;100845.97;;;9.88;100.00
10897;BME280;5501;51.176;6.470;2023-02-23T08:25:18;100845.97;;;9.88;100.00
10897;BME280;5501;51.176;6.470;2023-02-23T08:30:22;100845.97;;;9.88;100.00
10897;BME280;5501;51.176;6.470;2023-02-23T08:35:24;100845.97;;;9.88;100.00
10897;BME280;5501;51.176;6.470;2023-02-23T08:40:26;100845.97;;;9.88;100.00
10897;BME280;5501;51.176;6.470;2023-02-23T08:45:27;100893.00;;;9.83;100.00
10897;BME280;5501;51.176;6.470;2023-02-23T08:50:29;100893.00;;;9.83;100.00
10897;BME280;5501;51.176;6.470;2023-02-23T08:55:31;100893.00;;;9.83;100.00
10897;BME280;5501;51.176;6.470;2023-02-23T09:00:38;100885.16;;;9.78;100.00
10897;BME280;5501;51.176;6.470;2023-02-23T09:05:40;100885.16;;;9.78;100.00
10897;BME280;5501;51.176;6.470;2023-02-23T09:10:43;100902.69;;;9.85;100.00
10897;BME280;5501;51.176;6.470;2023-02-23T09:15:44;77053.38;;;-140.81;100.00
10897;BME280;5501;51.176;6.470;2023-02-23T09:20:46;100909.25;;;10.10;100.00
10897;BME280;5501;51.176;6.470;2023-02-23T09:25:47;100909.25;;;10.10;100.00
10897;BME280;5501;51.176;6.470;2023-02-23T09:30:49;100919.03;;;10.08;100.00
10897;BME280;5501;51.176;6.470;2023-02-23T09:35:50;100919.03;;;10.08;100.00
10897;BME280;5501;51.176;6.470;2023-02-23T09:40:53;100919.03;;;10.08;100.00
10897;BME280;5501;51.176;6.470;2023-02-23T09:46:38;100919.03;;;10.08;100.00
10897;BME280;5501;51.176;6.470;2023-02-23T09:51:40;100919.03;;;10.08;100.00
10897;BME280;5501;51.176;6.470;2023-02-23T09:56:46;100919.03;;;10.08;100.00
10897;BME280;5501;51.176;6.470;2023-02-23T10:01:52;100919.03;;;10.08;100.00
10897;BME280;5501;51.176;6.470;2023-02-23T10:06:59;100954.78;;;10.33;100.00
10897;BME280;5501;51.176;6.470;2023-02-23T10:17:58;100958.34;;;10.32;100.00
10897;BME280;5501;51.176;6.470;2023-02-23T10:23:07;100958.34;;;10.32;100.00
10897;BME280;5501;51.176;6.470;2023-02-23T10:28:15;100974.59;;;10.20;100.00
10897;BME280;5501;51.176;6.470;2023-02-23T10:33:33;100974.59;;;10.20;100.00
10897;BME280;5501;51.176;6.470;2023-02-23T10:38:36;100974.59;;;10.20;100.00
10897;BME280;5501;51.176;6.470;2023-02-23T10:43:38;100976.75;;;10.00;100.00
10897;BME280;5501;51.176;6.470;2023-02-23T10:48:40;100974.91;;;10.05;100.00
10897;BME280;5501;51.176;6.470;2023-02-23T10:53:43;100974.91;;;10.05;100.00
10897;BME280;5501;51.176;6.470;2023-02-23T10:58:50;100981.09;;;10.04;100.00
10897;BME280;5501;51.176;6.470;2023-02-23T11:03:52;100987.88;;;10.20;100.00
10897;BME280;5501;51.176;6.470;2023-02-23T11:14:30;100987.88;;;10.20;100.00
10897;BME280;5501;51.176;6.470;2023-02-23T11:19:34;100975.34;;;9.84;100.00
10897;BME280;5501;51.176;6.470;2023-02-23T11:24:39;100982.03;;;10.03;100.00
10897;BME280;5501;51.176;6.470;2023-02-23T11:29:44;100984.28;;;9.80;100.00
10897;BME280;5501;51.176;6.470;2023-02-23T11:35:10;100984.28;;;9.80;100.00
10897;BME280;5501;51.176;6.470;2023-02-23T11:40:26;100978.91;;;9.83;100.00
10897;BME280;5501;51.176;6.470;2023-02-23T11:45:30;100978.91;;;9.83;100.00
10897;BME280;5501;51.176;6.470;2023-02-23T11:50:34;100970.72;;;9.94;100.00
10897;BME280;5501;51.176;6.470;2023-02-23T11:55:37;100970.72;;;9.94;100.00
10897;BME280;5501;51.176;6.470;2023-02-23T12:00:38;100970.72;;;9.94;100.00
10897;BME280;5501;51.176;6.470;2023-02-23T12:05:49;100975.28;;;10.28;100.00
10897;BME280;5501;51.176;6.470;2023-02-23T12:10:54;100973.75;;;10.57;100.00
10897;BME280;5501;51.176;6.470;2023-02-23T12:26:49;100967.69;;;10.10;100.00
10897;BME280;5501;51.176;6.470;2023-02-23T12:31:56;100967.69;;;10.10;100.00
10897;BME280;5501;51.176;6.470;2023-02-23T12:37:03;100970.81;;;10.29;100.00
10897;BME280;5501;51.176;6.470;2023-02-23T12:42:39;100970.50;;;10.42;100.00
10897;BME280;5501;51.176;6.470;2023-02-23T12:47:52;100970.50;;;10.42;100.00
10897;BME280;5501;51.176;6.470;2023-02-23T12:53:06;100961.28;;;10.58;100.00
10897;BME280;5501;51.176;6.470;2023-02-23T12:58:18;100953.75;;;10.76;100.00
10897;BME280;5501;51.176;6.470;2023-02-23T13:09:17;100965.13;;;10.82;99.51
10897;BME280;5501;51.176;6.470;2023-02-23T13:14:28;100957.16;;;11.16;96.54
10897;BME280;5501;51.176;6.470;2023-02-23T13:20:16;100959.41;;;11.31;94.59
10897;BME280;5501;51.176;6.470;2023-02-23T13:30:57;100951.63;;;10.90;92.83
10897;BME280;5501;51.176;6.470;2023-02-23T13:36:03;100959.47;;;10.61;95.59
10897;BME280;5501;51.176;6.470;2023-02-23T13:41:26;100967.78;;;10.45;96.90
10897;BME280;5501;51.176;6.470;2023-02-23T13:47:09;100966.00;;;10.48;94.48
10897;BME280;5501;51.176;6.470;2023-02-23T13:52:28;100969.63;;;10.43;94.58
10897;BME280;5501;51.176;6.470;2023-02-23T13:57:30;100974.31;;;10.32;95.07
10897;BME280;5501;51.176;6.470;2023-02-23T14:02:37;100978.84;;;10.66;94.12
10897;BME280;5501;51.176;6.470;2023-02-23T14:07:42;100978.22;;;10.54;93.83
10897;BME280;5501;51.176;6.470;2023-02-23T14:38:42;100966.53;;;10.62;97.72
10897;BME280;5501;51.176;6.470;2023-02-23T14:44:34;100966.53;;;10.62;97.72
10897;BME280;5501;51.176;6.470;2023-02-23T14:49:35;100970.72;;;10.33;96.53
10897;BME280;5501;51.176;6.470;2023-02-23T14:54:40;100970.00;;;10.63;96.13
10897;BME280;5501;51.176;6.470;2023-02-23T14:59:45;100986.88;;;10.63;95.82
10897;BME280;5501;51.176;6.470;2023-02-23T15:04:51;100993.56;;;10.43;95.47
10897;BME280;5501;51.176;6.470;2023-02-23T15:09:55;100995.50;;;10.35;96.29
10897;BME280;5501;51.176;6.470;2023-02-23T15:15:00;100995.50;;;10.35;96.29
10897;BME280;5501;51.176;6.470;2023-02-23T15:20:05;100999.03;;;10.36;96.08
10897;BME280;5501;51.176;6.470;2023-02-23T15:25:23;100999.03;;;10.36;96.08
10897;BME280;5501;51.176;6.470;2023-02-23T15:30:29;101002.63;;;10.33;96.02
10897;BME280;5501;51.176;6.470;2023-02-23T15:35:36;101000.63;;;10.44;96.94
10897;BME280;5501;51.176;6.470;2023-02-23T15:40:42;101006.94;;;10.39;94.32
10897;BME280;5501;51.176;6.470;2023-02-23T15:45:48;101000.22;;;10.23;95.19
10897;BME280;5501;51.176;6.470;2023-02-23T15:50:55;100995.50;;;10.35;94.47
10897;BME280;5501;51.176;6.470;2023-02-23T15:56:25;100997.38;;;10.30;95.39
10897;BME280;5501;51.176;6.470;2023-02-23T16:01:29;100989.44;;;10.29;92.99
10897;BME280;5501;51.176;6.470;2023-02-23T16:06:35;101001.66;;;10.37;92.79
10897;BME280;5501;51.176;6.470;2023-02-23T16:11:38;100999.78;;;10.41;90.99
10897;BME280;5501;51.176;6.470;2023-02-23T16:16:39;100993.19;;;10.20;90.06
10897;BME280;5501;51.176;6.470;2023-02-23T16:21:47;100986.94;;;10.21;90.85
10897;BME280;5501;51.176;6.470;2023-02-23T16:27:00;100992.59;;;10.06;91.08
10897;BME280;5501;51.176;6.470;2023-02-23T16:32:10;100989.72;;;10.17;91.87
10897;BME280;5501;51.176;6.470;2023-02-23T16:37:19;100999.31;;;10.22;90.50
10897;BME280;5501;51.176;6.470;2023-02-23T16:42:33;100995.56;;;10.32;89.34
10897;BME280;5501;51.176;6.470;2023-02-23T16:47:40;100995.63;;;10.29;89.51
10897;BME280;5501;51.176;6.470;2023-02-23T16:52:44;100994.88;;;10.24;90.16
10897;BME280;5501;51.176;6.470;2023-02-23T16:57:47;100985.69;;;10.37;91.38
10897;BME280;5501;51.176;6.470;2023-02-23T17:02:51;100998.94;;;10.40;91.43
10897;BME280;5501;51.176;6.470;2023-02-23T17:07:53;101002.34;;;10.45;91.77
10897;BME280;5501;51.176;6.470;2023-02-23T17:13:01;100997.53;;;10.24;91.65
10897;BME280;5501;51.176;6.470;2023-02-23T17:18:04;101006.31;;;10.26;94.84
10897;BME280;5501;51.176;6.470;2023-02-23T17:23:06;101012.06;;;10.08;92.27
10897;BME280;5501;51.176;6.470;2023-02-23T17:28:08;101017.31;;;10.11;92.94
10897;BME280;5501;51.176;6.470;2023-02-23T17:33:09;101017.34;;;10.10;92.64
10897;BME280;5501;51.176;6.470;2023-02-23T17:38:11;101009.59;;;9.98;93.62
10897;BME280;5501;51.176;6.470;2023-02-23T17:43:13;101018.41;;;9.98;93.66
10897;BME280;5501;51.176;6.470;2023-02-23T17:48:14;101015.69;;;10.01;93.24
10897;BME280;5501;51.176;6.470;2023-02-23T17:53:16;101024.38;;;10.12;93.22
10897;BME280;5501;51.176;6.470;2023-02-23T17:58:17;101027.78;;;10.17;93.60
10897;BME280;5501;51.176;6.470;2023-02-23T18:03:19;101031.22;;;10.22;93.36
10897;BME280;5501;51.176;6.470;2023-02-23T18:08:21;101027.09;;;10.08;93.13
10897;BME280;5501;51.176;6.470;2023-02-23T18:13:23;101038.69;;;10.05;93.61
10897;BME280;5501;51.176;6.470;2023-02-23T18:18:25;101039.66;;;9.98;95.04
10897;BME280;5501;51.176;6.470;2023-02-23T18:23:28;101039.09;;;9.84;95.18
10897;BME280;5501;51.176;6.470;2023-02-23T18:28:33;101035.47;;;9.88;95.33
10897;BME280;5501;51.176;6.470;2023-02-23T18:33:35;101036.84;;;9.63;95.61
10897;BME280;5501;51.176;6.470;2023-02-23T18:38:36;101051.75;;;9.70;95.32
10897;BME280;5501;51.176;6.470;2023-02-23T18:43:38;101048.66;;;9.47;98.04
10897;BME280;5501;51.176;6.470;2023-02-23T18:48:40;101048.66;;;9.47;98.04
10897;BME280;5501;51.176;6.470;2023-02-23T18:53:42;101054.22;;;9.32;99.88
10897;BME280;5501;51.176;6.470;2023-02-23T18:58:44;101054.22;;;9.32;99.88
10897;BME280;5501;51.176;6.470;2023-02-23T19:03:47;101040.63;;;9.50;100.00
10897;BME280;5501;51.176;6.470;2023-02-23T19:08:51;101038.81;;;9.52;100.00
10897;BME280;5501;51.176;6.470;2023-02-23T19:13:56;101037.84;;;9.56;99.73
10897;BME280;5501;51.176;6.470;2023-02-23T19:18:59;101037.84;;;9.56;99.73
10897;BME280;5501;51.176;6.470;2023-02-23T19:24:01;101041.28;;;9.61;99.81
10897;BME280;5501;51.176;6.470;2023-02-23T19:29:03;101040.63;;;9.52;100.00
10897;BME280;5501;51.176;6.470;2023-02-23T19:34:04;101040.63;;;9.52;100.00
10897;BME280;5501;51.176;6.470;2023-02-23T19:39:08;101034.50;;;9.45;100.00
10897;BME280;5501;51.176;6.470;2023-02-23T19:44:11;101030.91;;;9.49;100.00
10897;BME280;5501;51.176;6.470;2023-02-23T19:49:12;101028.09;;;9.58;100.00
10897;BME280;5501;51.176;6.470;2023-02-23T19:54:14;101015.69;;;9.59;98.52
10897;BME280;5501;51.176;6.470;2023-02-23T19:59:15;101015.69;;;9.59;98.52
10897;BME280;5501;51.176;6.470;2023-02-23T20:04:17;101015.69;;;9.59;98.52
10897;BME280;5501;51.176;6.470;2023-02-23T20:09:18;101015.69;;;9.59;98.52
10897;BME280;5501;51.176;6.470;2023-02-23T20:14:19;101036.06;;;9.58;98.68
10897;BME280;5501;51.176;6.470;2023-02-23T20:19:21;101036.06;;;9.58;98.68
10897;BME280;5501;51.176;6.470;2023-02-23T20:24:22;101041.66;;;9.43;99.84
10897;BME280;5501;51.176;6.470;2023-02-23T20:29:24;101045.19;;;9.44;99.09
10897;BME280;5501;51.176;6.470;2023-02-23T20:34:28;101051.16;;;9.55;98.47
10897;BME280;5501;51.176;6.470;2023-02-23T20:39:30;101049.59;;;9.43;98.58
10897;BME280;5501;51.176;6.470;2023-02-23T20:44:31;101049.59;;;9.43;98.58
10897;BME280;5501;51.176;6.470;2023-02-23T20:49:33;101049.59;;;9.43;98.58
10897;BME280;5501;51.176;6.470;2023-02-23T20:54:35;101047.13;;;9.34;99.07
10897;BME280;5501;51.176;6.470;2023-02-23T20:59:36;101045.22;;;9.41;98.70
10897;BME280;5501;51.176;6.470;2023-02-23T21:04:38;101044.59;;;9.27;99.16
10897;BME280;5501;51.176;6.470;2023-02-23T21:09:41;101044.38;;;9.37;99.62
10897;BME280;5501;51.176;6.470;2023-02-23T21:14:46;101047.13;;;9.34;99.10
10897;BME280;5501;51.176;6.470;2023-02-23T21:19:47;101047.13;;;9.34;99.10
10897;BME280;5501;51.176;6.470;2023-02-23T21:24:49;101047.13;;;9.34;99.10
10897;BME280;5501;51.176;6.470;2023-02-23T21:34:56;101047.13;;;9.34;99.10
10897;BME280;5501;51.176;6.470;2023-02-23T21:39:58;101047.13;;;9.34;99.10
10897;BME280;5501;51.176;6.470;2023-02-23T21:50:01;77232.88;;;-140.81;99.10
10897;BME280;5501;51.176;6.470;2023-02-23T21:55:03;77232.88;;;-140.81;99.10
10897;BME280;5501;51.176;6.470;2023-02-23T22:00:13;101047.13;;;9.34;99.10
10897;BME280;5501;51.176;6.470;2023-02-23T22:05:17;101047.13;;;9.34;99.10
10897;BME280;5501;51.176;6.470;2023-02-23T22:10:22;101047.13;;;9.34;99.10
10897;BME280;5501;51.176;6.470;2023-02-23T22:15:24;101047.13;;;9.34;99.10
10897;BME280;5501;51.176;6.470;2023-02-23T22:20:27;101047.13;;;9.34;99.10
10897;BME280;5501;51.176;6.470;2023-02-23T22:25:29;57965.28;;;-140.81;100.00
10897;BME280;5501;51.176;6.470;2023-02-23T22:30:30;101047.13;;;9.34;99.10
10897;BME280;5501;51.176;6.470;2023-02-23T22:35:32;57965.28;;;-140.81;99.10
10897;BME280;5501;51.176;6.470;2023-02-23T22:40:34;101047.13;;;9.34;99.10
10897;BME280;5501;51.176;6.470;2023-02-23T22:45:37;77232.88;;;-140.81;99.10
10897;BME280;5501;51.176;6.470;2023-02-23T22:50:39;101047.13;;;9.34;99.10
10897;BME280;5501;51.176;6.470;2023-02-23T22:55:46;101047.13;;;9.34;99.10
10897;BME280;5501;51.176;6.470;2023-02-23T23:00:49;77232.88;;;-140.81;99.10
10897;BME280;5501;51.176;6.470;2023-02-23T23:06:10;57965.28;;;-140.81;72.71
10897;BME280;5501;51.176;6.470;2023-02-23T23:11:18;77232.88;;;-140.81;99.10
10897;BME280;5501;51.176;6.470;2023-02-23T23:16:22;101047.13;;;9.34;99.10
10897;BME280;5501;51.176;6.470;2023-02-23T23:21:33;77232.88;;;-140.81;99.10
10897;BME280;5501;51.176;6.470;2023-02-23T23:26:36;101047.13;;;9.34;100.00
10897;BME280;5501;51.176;6.470;2023-02-23T23:31:41;101002.13;;;8.15;100.00
10897;BME280;5501;51.176;6.470;2023-02-23T23:41:49;57965.28;;;-140.81;100.00
10897;BME280;5501;51.176;6.470;2023-02-23T23:46:51;77359.34;;;-140.81;100.00
10897;BME280;5501;51.176;6.470;2023-02-23T23:51:54;77359.34;;;-140.81;100.00
10897;BME280;5501;51.176;6.470;2023-02-23T23:56:57;57965.28;;;-140.81;74.11
